Time;durP1;ratioP1;P1;durP2;ratioP2;P2;SDS_P1;SDS_P2;PMS_P1;PMS_P2;Temp;Humidity;BMP_temperature;BMP_pressure;BME280_temperature;BME280_humidity;BME280_pressure;Samples;Min_cycle;Max_cycle;Signal;HPM_P1;HPM_P2
2021/04/19 00:00:16;;;;;;;7.05;5.53;;;11.4;99.9;;;;;;;;;
2021/04/19 00:01:02;;;;;;;7.05;5.53;;;11.4;99.9;;;;;;;;;
2021/04/19 00:02:02;;;;;;;7.28;6.03;;;11.4;99.9;;;;;;;;;
2021/04/19 00:02:29;;;;;;;7.07;6.38;;;11.4;99.9;;;;;;;;;
2021/04/19 00:03:02;;;;;;;7.07;6.38;;;11.4;99.9;;;;;;;;;
2021/04/19 00:03:15;;;;;;;7.07;6.38;;;11.4;99.9;;;;;;;;;
2021/04/19 00:04:02;;;;;;;7.72;6.4;;;11.4;99.9;;;;;;;;;
2021/04/19 00:04:17;;;;;;;7.05;6;;;11.4;99.9;;;;;;;;;
2021/04/19 00:04:42;;;;;;;7.05;6;;;11.4;99.9;;;;;;;;;
2021/04/19 00:05:01;;;;;;;7.05;6;;;11.4;99.9;;;;;;;;;
2021/04/19 00:05:13;;;;;;;7.05;6;;;11.4;99.9;;;;;;;;;
2021/04/19 00:05:28;;;;;;;8.35;6.88;;;11.3;99.9;;;;;;;;;
2021/04/19 00:06:02;;;;;;;8.35;6.88;;;11.3;99.9;;;;;;;;;
2021/04/19 00:06:15;;;;;;;8.35;6.88;;;11.3;99.9;;;;;;;;;
2021/04/19 00:06:30;;;;;;;7.47;6.68;;;11.3;99.9;;;;;;;;;
2021/04/19 00:06:55;;;;;;;7.47;6.68;;;11.3;99.9;;;;;;;;;
2021/04/19 00:07:02;;;;;;;7.47;6.68;;;11.3;99.9;;;;;;;;;
2021/04/19 00:07:16;;;;;;;7.47;6.68;;;11.3;99.9;;;;;;;;;
2021/04/19 00:07:26;;;;;;;8.75;6.28;;;11.3;99.9;;;;;;;;;
2021/04/19 00:07:42;;;;;;;8.75;6.28;;;11.3;99.9;;;;;;;;;
2021/04/19 00:08:02;;;;;;;8.75;6.28;;;11.3;99.9;;;;;;;;;
2021/04/19 00:08:12;;;;;;;8.75;6.28;;;11.3;99.9;;;;;;;;;
2021/04/19 00:08:28;;;;;;;7.97;6.53;;;11.4;99.9;;;;;;;;;
2021/04/19 00:08:43;;;;;;;7.97;6.53;;;11.4;99.9;;;;;;;;;
2021/04/19 00:09:02;;;;;;;7.97;6.53;;;11.4;99.9;;;;;;;;;
2021/04/19 00:09:09;;;;;;;7.97;6.53;;;11.4;99.9;;;;;;;;;
2021/04/19 00:09:14;;;;;;;7.97;6.53;;;11.4;99.9;;;;;;;;;
2021/04/19 00:09:29;;;;;;;9.05;6.82;;;11.3;99.9;;;;;;;;;
2021/04/19 00:09:39;;;;;;;9.05;6.82;;;11.3;99.9;;;;;;;;;
2021/04/19 00:09:55;;;;;;;9.05;6.82;;;11.3;99.9;;;;;;;;;
2021/04/19 00:10:02;;;;;;;9.05;6.82;;;11.3;99.9;;;;;;;;;
2021/04/19 00:10:15;;;;;;;9.05;6.82;;;11.3;99.9;;;;;;;;;
2021/04/19 00:10:25;;;;;;;7.2;6.5;;;11.3;99.9;;;;;;;;;
2021/04/19 00:10:41;;;;;;;7.2;6.5;;;11.3;99.9;;;;;;;;;
2021/04/19 00:10:57;;;;;;;7.2;6.5;;;11.3;99.9;;;;;;;;;
2021/04/19 00:11:02;;;;;;;7.2;6.5;;;11.3;99.9;;;;;;;;;
2021/04/19 00:11:17;;;;;;;7.2;6.5;;;11.3;99.9;;;;;;;;;
2021/04/19 00:11:27;;;;;;;7.4;6.55;;;11.3;99.9;;;;;;;;;
2021/04/19 00:11:42;;;;;;;7.4;6.55;;;11.3;99.9;;;;;;;;;
2021/04/19 00:11:52;;;;;;;7.4;6.55;;;11.3;99.9;;;;;;;;;
2021/04/19 00:12:01;;;;;;;7.4;6.55;;;11.3;99.9;;;;;;;;;
2021/04/19 00:12:08;;;;;;;7.4;6.55;;;11.3;99.9;;;;;;;;;
2021/04/19 00:12:13;;;;;;;7.4;6.55;;;11.3;99.9;;;;;;;;;
2021/04/19 00:12:28;;;;;;;7.25;6.5;;;11.2;99.9;;;;;;;;;
2021/04/19 00:12:39;;;;;;;7.25;6.5;;;11.2;99.9;;;;;;;;;
2021/04/19 00:12:54;;;;;;;7.25;6.5;;;11.2;99.9;;;;;;;;;
2021/04/19 00:13:01;;;;;;;7.25;6.5;;;11.2;99.9;;;;;;;;;
2021/04/19 00:13:09;;;;;;;7.25;6.5;;;11.2;99.9;;;;;;;;;
2021/04/19 00:13:14;;;;;;;7.25;6.5;;;11.2;99.9;;;;;;;;;
2021/04/19 00:13:30;;;;;;;7.95;6.6;;;11.2;99.9;;;;;;;;;
2021/04/19 00:13:40;;;;;;;7.95;6.6;;;11.2;99.9;;;;;;;;;
2021/04/19 00:13:55;;;;;;;7.95;6.6;;;11.2;99.9;;;;;;;;;
2021/04/19 00:14:01;;;;;;;7.95;6.6;;;11.2;99.9;;;;;;;;;
2021/04/19 00:14:06;;;;;;;7.95;6.6;;;11.2;99.9;;;;;;;;;
2021/04/19 00:14:16;;;;;;;7.95;6.6;;;11.2;99.9;;;;;;;;;
2021/04/19 00:14:26;;;;;;;7.9;7.1;;;11.2;99.9;;;;;;;;;
2021/04/19 00:14:41;;;;;;;7.9;7.1;;;11.2;99.9;;;;;;;;;
2021/04/19 00:14:52;;;;;;;7.9;7.1;;;11.2;99.9;;;;;;;;;
2021/04/19 00:15:02;;;;;;;7.9;7.1;;;11.2;99.9;;;;;;;;;
2021/04/19 00:15:07;;;;;;;7.9;7.1;;;11.2;99.9;;;;;;;;;
2021/04/19 00:15:12;;;;;;;7.9;7.1;;;11.2;99.9;;;;;;;;;
2021/04/19 00:15:28;;;;;;;8.02;7.18;;;11.2;99.9;;;;;;;;;
2021/04/19 00:15:43;;;;;;;8.02;7.18;;;11.2;99.9;;;;;;;;;
2021/04/19 00:15:53;;;;;;;8.02;7.18;;;11.2;99.9;;;;;;;;;
2021/04/19 00:16:02;;;;;;;8.02;7.18;;;11.2;99.9;;;;;;;;;
2021/04/19 00:16:09;;;;;;;8.02;7.18;;;11.2;99.9;;;;;;;;;
2021/04/19 00:16:14;;;;;;;8.02;7.18;;;11.2;99.9;;;;;;;;;
2021/04/19 00:16:29;;;;;;;7.25;6.55;;;11.2;99.9;;;;;;;;;
2021/04/19 00:16:39;;;;;;;7.25;6.55;;;11.2;99.9;;;;;;;;;
2021/04/19 00:16:55;;;;;;;7.25;6.55;;;11.2;99.9;;;;;;;;;
2021/04/19 00:17:01;;;;;;;7.25;6.55;;;11.2;99.9;;;;;;;;;
2021/04/19 00:17:05;;;;;;;7.25;6.55;;;11.2;99.9;;;;;;;;;
2021/04/19 00:17:15;;;;;;;7.25;6.55;;;11.2;99.9;;;;;;;;;
2021/04/19 00:17:25;;;;;;;7.72;6.43;;;11.2;99.9;;;;;;;;;
2021/04/19 00:17:41;;;;;;;7.72;6.43;;;11.2;99.9;;;;;;;;;
2021/04/19 00:17:56;;;;;;;7.72;6.43;;;11.2;99.9;;;;;;;;;
2021/04/19 00:18:02;;;;;;;7.72;6.43;;;11.2;99.9;;;;;;;;;
2021/04/19 00:18:06;;;;;;;7.72;6.43;;;11.2;99.9;;;;;;;;;
2021/04/19 00:18:16;;;;;;;7.72;6.43;;;11.2;99.9;;;;;;;;;
2021/04/19 00:18:27;;;;;;;7.68;6.88;;;11.3;99.9;;;;;;;;;
2021/04/19 00:18:42;;;;;;;7.68;6.88;;;11.3;99.9;;;;;;;;;
2021/04/19 00:18:52;;;;;;;7.68;6.88;;;11.3;99.9;;;;;;;;;
2021/04/19 00:19:02;;;;;;;7.68;6.88;;;11.3;99.9;;;;;;;;;
2021/04/19 00:19:08;;;;;;;7.68;6.88;;;11.3;99.9;;;;;;;;;
2021/04/19 00:19:13;;;;;;;7.68;6.88;;;11.3;99.9;;;;;;;;;
2021/04/19 00:19:28;;;;;;;7.65;6.85;;;11.3;99.9;;;;;;;;;
2021/04/19 00:19:39;;;;;;;7.65;6.85;;;11.3;99.9;;;;;;;;;
2021/04/19 00:19:54;;;;;;;7.65;6.85;;;11.3;99.9;;;;;;;;;
2021/04/19 00:20:02;;;;;;;7.65;6.85;;;11.3;99.9;;;;;;;;;
2021/04/19 00:20:09;;;;;;;7.65;6.85;;;11.3;99.9;;;;;;;;;
2021/04/19 00:20:14;;;;;;;7.65;6.85;;;11.3;99.9;;;;;;;;;
2021/04/19 00:20:30;;;;;;;7.5;6.8;;;11.3;99.9;;;;;;;;;
2021/04/19 00:20:40;;;;;;;7.5;6.8;;;11.3;99.9;;;;;;;;;
2021/04/19 00:20:55;;;;;;;7.5;6.8;;;11.3;99.9;;;;;;;;;
2021/04/19 00:21:02;;;;;;;7.5;6.8;;;11.3;99.9;;;;;;;;;
2021/04/19 00:21:05;;;;;;;7.5;6.8;;;11.3;99.9;;;;;;;;;
2021/04/19 00:21:16;;;;;;;7.5;6.8;;;11.3;99.9;;;;;;;;;
2021/04/19 00:21:31;;;;;;;8.73;7.3;;;11.3;99.9;;;;;;;;;
2021/04/19 00:21:41;;;;;;;8.73;7.3;;;11.3;99.9;;;;;;;;;
2021/04/19 00:21:51;;;;;;;8.73;7.3;;;11.3;99.9;;;;;;;;;
2021/04/19 00:22:01;;;;;;;8.73;7.3;;;11.3;99.9;;;;;;;;;
2021/04/19 00:22:07;;;;;;;8.73;7.3;;;11.3;99.9;;;;;;;;;
2021/04/19 00:22:17;;;;;;;8.73;7.3;;;11.3;99.9;;;;;;;;;
2021/04/19 00:22:27;;;;;;;8.13;7.32;;;11.3;99.9;;;;;;;;;
2021/04/19 00:22:43;;;;;;;8.13;7.32;;;11.3;99.9;;;;;;;;;
2021/04/19 00:22:53;;;;;;;8.13;7.32;;;11.3;99.9;;;;;;;;;
2021/04/19 00:23:02;;;;;;;8.13;7.32;;;11.3;99.9;;;;;;;;;
2021/04/19 00:23:08;;;;;;;8.13;7.32;;;11.3;99.9;;;;;;;;;
2021/04/19 00:23:13;;;;;;;8.13;7.32;;;11.3;99.9;;;;;;;;;
2021/04/19 00:23:29;;;;;;;9.63;7.2;;;11.2;99.9;;;;;;;;;
2021/04/19 00:23:44;;;;;;;9.63;7.2;;;11.2;99.9;;;;;;;;;
2021/04/19 00:23:54;;;;;;;9.63;7.2;;;11.2;99.9;;;;;;;;;
2021/04/19 00:24:02;;;;;;;9.63;7.2;;;11.2;99.9;;;;;;;;;
2021/04/19 00:24:05;;;;;;;9.63;7.2;;;11.2;99.9;;;;;;;;;
2021/04/19 00:24:15;;;;;;;9.63;7.2;;;11.2;99.9;;;;;;;;;
2021/04/19 00:24:30;;;;;;;9.2;7.93;;;11.2;99.9;;;;;;;;;
2021/04/19 00:24:40;;;;;;;9.2;7.93;;;11.2;99.9;;;;;;;;;
2021/04/19 00:24:56;;;;;;;9.2;7.93;;;11.2;99.9;;;;;;;;;
2021/04/19 00:25:02;;;;;;;9.2;7.93;;;11.2;99.9;;;;;;;;;
2021/04/19 00:25:06;;;;;;;9.2;7.93;;;11.2;99.9;;;;;;;;;
2021/04/19 00:25:16;;;;;;;9.2;7.93;;;11.2;99.9;;;;;;;;;
2021/04/19 00:25:27;;;;;;;8.23;7.35;;;11.2;99.9;;;;;;;;;
2021/04/19 00:25:42;;;;;;;8.23;7.35;;;11.2;99.9;;;;;;;;;
2021/04/19 00:25:57;;;;;;;8.23;7.35;;;11.2;99.9;;;;;;;;;
2021/04/19 00:26:02;;;;;;;8.23;7.35;;;11.2;99.9;;;;;;;;;
2021/04/19 00:26:08;;;;;;;8.23;7.35;;;11.2;99.9;;;;;;;;;
2021/04/19 00:26:18;;;;;;;8.23;7.35;;;11.2;99.9;;;;;;;;;
2021/04/19 00:26:28;;;;;;;7.88;7.18;;;11.1;99.9;;;;;;;;;
2021/04/19 00:26:43;;;;;;;7.88;7.18;;;11.1;99.9;;;;;;;;;
2021/04/19 00:26:54;;;;;;;7.88;7.18;;;11.1;99.9;;;;;;;;;
2021/04/19 00:27:01;;;;;;;7.88;7.18;;;11.1;99.9;;;;;;;;;
2021/04/19 00:27:09;;;;;;;7.88;7.18;;;11.1;99.9;;;;;;;;;
2021/04/19 00:27:14;;;;;;;7.88;7.18;;;11.1;99.9;;;;;;;;;
2021/04/19 00:27:29;;;;;;;7.3;6.6;;;11.1;99.9;;;;;;;;;
2021/04/19 00:27:40;;;;;;;7.3;6.6;;;11.1;99.9;;;;;;;;;
2021/04/19 00:27:55;;;;;;;7.3;6.6;;;11.1;99.9;;;;;;;;;
2021/04/19 00:28:02;;;;;;;7.3;6.6;;;11.1;99.9;;;;;;;;;
2021/04/19 00:28:10;;;;;;;7.3;6.6;;;11.1;99.9;;;;;;;;;
2021/04/19 00:28:16;;;;;;;7.3;6.6;;;11.1;99.9;;;;;;;;;
2021/04/19 00:28:31;;;;;;;9.1;7.07;;;11.1;99.9;;;;;;;;;
2021/04/19 00:28:41;;;;;;;9.1;7.07;;;11.1;99.9;;;;;;;;;
2021/04/19 00:28:56;;;;;;;9.1;7.07;;;11.1;99.9;;;;;;;;;
2021/04/19 00:29:02;;;;;;;9.1;7.07;;;11.1;99.9;;;;;;;;;
2021/04/19 00:29:07;;;;;;;9.1;7.07;;;11.1;99.9;;;;;;;;;
2021/04/19 00:29:12;;;;;;;9.1;7.07;;;11.1;99.9;;;;;;;;;
2021/04/19 00:29:27;;;;;;;8.85;7.97;;;11.1;99.9;;;;;;;;;
2021/04/19 00:29:43;;;;;;;8.85;7.97;;;11.1;99.9;;;;;;;;;
2021/04/19 00:29:53;;;;;;;8.85;7.97;;;11.1;99.9;;;;;;;;;
2021/04/19 00:30:02;;;;;;;8.85;7.97;;;11.1;99.9;;;;;;;;;
2021/04/19 00:30:08;;;;;;;8.85;7.97;;;11.1;99.9;;;;;;;;;
2021/04/19 00:30:13;;;;;;;8.85;7.97;;;11.1;99.9;;;;;;;;;
2021/04/19 00:30:29;;;;;;;8.2;7.32;;;11.1;99.9;;;;;;;;;
2021/04/19 00:30:44;;;;;;;8.2;7.32;;;11.1;99.9;;;;;;;;;
2021/04/19 00:30:54;;;;;;;8.2;7.32;;;11.1;99.9;;;;;;;;;
2021/04/19 00:31:02;;;;;;;8.2;7.32;;;11.1;99.9;;;;;;;;;
2021/04/19 00:31:10;;;;;;;8.2;7.32;;;11.1;99.9;;;;;;;;;
2021/04/19 00:31:15;;;;;;;8.2;7.32;;;11.1;99.9;;;;;;;;;
2021/04/19 00:31:25;;;;;;;8.18;7.28;;;11.1;99.9;;;;;;;;;
2021/04/19 00:31:40;;;;;;;8.18;7.28;;;11.1;99.9;;;;;;;;;
2021/04/19 00:31:56;;;;;;;8.18;7.28;;;11.1;99.9;;;;;;;;;
2021/04/19 00:32:01;;;;;;;8.18;7.28;;;11.1;99.9;;;;;;;;;
2021/04/19 00:32:06;;;;;;;8.18;7.28;;;11.1;99.9;;;;;;;;;
2021/04/19 00:32:16;;;;;;;8.18;7.28;;;11.1;99.9;;;;;;;;;
2021/04/19 00:32:26;;;;;;;8.27;7.45;;;11.1;99.9;;;;;;;;;
2021/04/19 00:32:42;;;;;;;8.27;7.45;;;11.1;99.9;;;;;;;;;
2021/04/19 00:32:57;;;;;;;8.27;7.45;;;11.1;99.9;;;;;;;;;
2021/04/19 00:33:02;;;;;;;8.27;7.45;;;11.1;99.9;;;;;;;;;
2021/04/19 00:33:07;;;;;;;8.27;7.45;;;11.1;99.9;;;;;;;;;
2021/04/19 00:33:12;;;;;;;8.27;7.45;;;11.1;99.9;;;;;;;;;
2021/04/19 00:33:28;;;;;;;7.85;7.05;;;11.1;99.9;;;;;;;;;
2021/04/19 00:33:38;;;;;;;7.85;7.05;;;11.1;99.9;;;;;;;;;
2021/04/19 00:33:53;;;;;;;7.85;7.05;;;11.1;99.9;;;;;;;;;
2021/04/19 00:34:02;;;;;;;7.85;7.05;;;11.1;99.9;;;;;;;;;
2021/04/19 00:34:09;;;;;;;7.85;7.05;;;11.1;99.9;;;;;;;;;
2021/04/19 00:34:14;;;;;;;7.85;7.05;;;11.1;99.9;;;;;;;;;
2021/04/19 00:34:29;;;;;;;7.6;6.9;;;11.2;99.9;;;;;;;;;
2021/04/19 00:34:39;;;;;;;7.6;6.9;;;11.2;99.9;;;;;;;;;
2021/04/19 00:34:55;;;;;;;7.6;6.9;;;11.2;99.9;;;;;;;;;
2021/04/19 00:35:02;;;;;;;7.6;6.9;;;11.2;99.9;;;;;;;;;
2021/04/19 00:35:10;;;;;;;7.6;6.9;;;11.2;99.9;;;;;;;;;
2021/04/19 00:35:15;;;;;;;7.6;6.9;;;11.2;99.9;;;;;;;;;
2021/04/19 00:35:26;;;;;;;7.6;6.9;;;11.2;99.9;;;;;;;;;
2021/04/19 00:35:41;;;;;;;7.97;7.22;;;11.3;99.9;;;;;;;;;
2021/04/19 00:35:51;;;;;;;7.97;7.22;;;11.3;99.9;;;;;;;;;
2021/04/19 00:36:02;;;;;;;7.97;7.22;;;11.3;99.9;;;;;;;;;
2021/04/19 00:36:07;;;;;;;7.97;7.22;;;11.3;99.9;;;;;;;;;
2021/04/19 00:36:17;;;;;;;7.97;7.22;;;11.3;99.9;;;;;;;;;
2021/04/19 00:36:27;;;;;;;9.82;7.43;;;11.4;99.9;;;;;;;;;
2021/04/19 00:36:42;;;;;;;9.82;7.43;;;11.4;99.9;;;;;;;;;
2021/04/19 00:36:53;;;;;;;9.82;7.43;;;11.4;99.9;;;;;;;;;
2021/04/19 00:37:01;;;;;;;9.82;7.43;;;11.4;99.9;;;;;;;;;
2021/04/19 00:37:08;;;;;;;9.82;7.43;;;11.4;99.9;;;;;;;;;
2021/04/19 00:37:13;;;;;;;9.82;7.43;;;11.4;99.9;;;;;;;;;
2021/04/19 00:37:29;;;;;;;9.5;7.97;;;11.4;99.9;;;;;;;;;
2021/04/19 00:37:39;;;;;;;9.5;7.97;;;11.4;99.9;;;;;;;;;
2021/04/19 00:37:54;;;;;;;9.5;7.97;;;11.4;99.9;;;;;;;;;
2021/04/19 00:38:02;;;;;;;9.5;7.97;;;11.4;99.9;;;;;;;;;
2021/04/19 00:38:05;;;;;;;9.5;7.97;;;11.4;99.9;;;;;;;;;
2021/04/19 00:38:15;;;;;;;9.5;7.97;;;11.4;99.9;;;;;;;;;
2021/04/19 00:38:30;;;;;;;8.7;7;;;11.5;99.9;;;;;;;;;
2021/04/19 00:38:40;;;;;;;8.7;7;;;11.5;99.9;;;;;;;;;
2021/04/19 00:38:56;;;;;;;8.7;7;;;11.5;99.9;;;;;;;;;
2021/04/19 00:39:01;;;;;;;8.7;7;;;11.5;99.9;;;;;;;;;
2021/04/19 00:39:06;;;;;;;8.7;7;;;11.5;99.9;;;;;;;;;
2021/04/19 00:39:16;;;;;;;8.7;7;;;11.5;99.9;;;;;;;;;
2021/04/19 00:39:26;;;;;;;8.7;7;;;11.5;99.9;;;;;;;;;
2021/04/19 00:39:42;;;;;;;8.07;7.38;;;11.6;99.9;;;;;;;;;
2021/04/19 00:39:52;;;;;;;8.07;7.38;;;11.6;99.9;;;;;;;;;
2021/04/19 00:40:02;;;;;;;8.07;7.38;;;11.6;99.9;;;;;;;;;
2021/04/19 00:40:07;;;;;;;8.07;7.38;;;11.6;99.9;;;;;;;;;
2021/04/19 00:40:12;;;;;;;8.07;7.38;;;11.6;99.9;;;;;;;;;
2021/04/19 00:40:28;;;;;;;8.65;7.22;;;11.6;99.9;;;;;;;;;
2021/04/19 00:40:43;;;;;;;8.65;7.22;;;11.6;99.9;;;;;;;;;
2021/04/19 00:40:53;;;;;;;8.65;7.22;;;11.6;99.9;;;;;;;;;
2021/04/19 00:41:02;;;;;;;8.65;7.22;;;11.6;99.9;;;;;;;;;
2021/04/19 00:41:09;;;;;;;8.65;7.22;;;11.6;99.9;;;;;;;;;
2021/04/19 00:41:14;;;;;;;8.65;7.22;;;11.6;99.9;;;;;;;;;
2021/04/19 00:41:29;;;;;;;8.3;7.5;;;11.6;99.9;;;;;;;;;
2021/04/19 00:41:39;;;;;;;8.3;7.5;;;11.6;99.9;;;;;;;;;
2021/04/19 00:41:55;;;;;;;8.3;7.5;;;11.6;99.9;;;;;;;;;
2021/04/19 00:42:01;;;;;;;8.3;7.5;;;11.6;99.9;;;;;;;;;
2021/04/19 00:42:05;;;;;;;8.3;7.5;;;11.6;99.9;;;;;;;;;
2021/04/19 00:42:21;;;;;;;8.3;7.5;;;11.6;99.9;;;;;;;;;
2021/04/19 00:42:25;;;;;;;8.3;7.5;;;11.6;99.9;;;;;;;;;
2021/04/19 00:42:41;;;;;;;8.2;7.03;;;11.7;99.9;;;;;;;;;
2021/04/19 00:42:56;;;;;;;8.2;7.03;;;11.7;99.9;;;;;;;;;
2021/04/19 00:43:02;;;;;;;8.2;7.03;;;11.7;99.9;;;;;;;;;
2021/04/19 00:43:06;;;;;;;8.2;7.03;;;11.7;99.9;;;;;;;;;
2021/04/19 00:43:17;;;;;;;8.2;7.03;;;11.7;99.9;;;;;;;;;
2021/04/19 00:43:27;;;;;;;8.2;7.03;;;11.7;99.9;;;;;;;;;
2021/04/19 00:43:42;;;;;;;8.05;7.07;;;11.8;99.9;;;;;;;;;
2021/04/19 00:43:52;;;;;;;8.05;7.07;;;11.8;99.9;;;;;;;;;
2021/04/19 00:44:02;;;;;;;8.05;7.07;;;11.8;99.9;;;;;;;;;
2021/04/19 00:44:08;;;;;;;8.05;7.07;;;11.8;99.9;;;;;;;;;
2021/04/19 00:44:13;;;;;;;8.05;7.07;;;11.8;99.9;;;;;;;;;
2021/04/19 00:44:33;;;;;;;7.55;6.85;;;11.8;99.9;;;;;;;;;
2021/04/19 00:44:39;;;;;;;7.55;6.85;;;11.8;99.9;;;;;;;;;
2021/04/19 00:44:54;;;;;;;7.55;6.85;;;11.8;99.9;;;;;;;;;
2021/04/19 00:45:02;;;;;;;7.55;6.85;;;11.8;99.9;;;;;;;;;
2021/04/19 00:45:09;;;;;;;7.55;6.85;;;11.8;99.9;;;;;;;;;
2021/04/19 00:45:14;;;;;;;7.55;6.85;;;11.8;99.9;;;;;;;;;
2021/04/19 00:45:30;;;;;;;7.88;7.13;;;11.7;99.9;;;;;;;;;
2021/04/19 00:45:40;;;;;;;7.88;7.13;;;11.7;99.9;;;;;;;;;
2021/04/19 00:46:02;;;;;;;7.88;7.13;;;11.7;99.9;;;;;;;;;
2021/04/19 00:46:02;;;;;;;7.88;7.13;;;11.7;99.9;;;;;;;;;
2021/04/19 00:46:06;;;;;;;7.88;7.13;;;11.7;99.9;;;;;;;;;
2021/04/19 00:46:16;;;;;;;7.88;7.13;;;11.7;99.9;;;;;;;;;
2021/04/19 00:46:26;;;;;;;7.88;7.13;;;11.7;99.9;;;;;;;;;
2021/04/19 00:46:48;;;;;;;8.18;7.32;;;11.6;99.9;;;;;;;;;
2021/04/19 00:46:52;;;;;;;8.18;7.32;;;11.6;99.9;;;;;;;;;
2021/04/19 00:47:01;;;;;;;8.18;7.32;;;11.6;99.9;;;;;;;;;
2021/04/19 00:47:07;;;;;;;8.18;7.32;;;11.6;99.9;;;;;;;;;
2021/04/19 00:47:18;;;;;;;8.18;7.32;;;11.6;99.9;;;;;;;;;
2021/04/19 00:47:28;;;;;;;8.18;7.32;;;11.6;99.9;;;;;;;;;
2021/04/19 00:47:45;;;;;;;7.93;7.18;;;11.7;99.9;;;;;;;;;
2021/04/19 00:47:53;;;;;;;7.93;7.18;;;11.7;99.9;;;;;;;;;
2021/04/19 00:48:02;;;;;;;7.93;7.18;;;11.7;99.9;;;;;;;;;
2021/04/19 00:48:14;;;;;;;7.93;7.18;;;11.7;99.9;;;;;;;;;
2021/04/19 00:48:14;;;;;;;7.93;7.18;;;11.7;99.9;;;;;;;;;
2021/04/19 00:48:29;;;;;;;7.93;7.18;;;11.7;99.9;;;;;;;;;
2021/04/19 00:48:39;;;;;;;9.07;7.6;;;11.6;99.9;;;;;;;;;
2021/04/19 00:49:00;;;;;;;9.07;7.6;;;11.6;99.9;;;;;;;;;
2021/04/19 00:49:01;;;;;;;9.07;7.6;;;11.6;99.9;;;;;;;;;
2021/04/19 00:49:05;;;;;;;9.07;7.6;;;11.6;99.9;;;;;;;;;
2021/04/19 00:49:15;;;;;;;9.07;7.6;;;11.6;99.9;;;;;;;;;
2021/04/19 00:49:30;;;;;;;8.25;7.35;;;11.5;99.9;;;;;;;;;
2021/04/19 00:49:41;;;;;;;8.25;7.35;;;11.5;99.9;;;;;;;;;
2021/04/19 00:49:56;;;;;;;8.25;7.35;;;11.5;99.9;;;;;;;;;
2021/04/19 00:50:02;;;;;;;8.25;7.35;;;11.5;99.9;;;;;;;;;
2021/04/19 00:50:06;;;;;;;8.25;7.35;;;11.5;99.9;;;;;;;;;
2021/04/19 00:50:16;;;;;;;8.25;7.35;;;11.5;99.9;;;;;;;;;
2021/04/19 00:50:27;;;;;;;8.25;7.35;;;11.5;99.9;;;;;;;;;
2021/04/19 00:50:42;;;;;;;9.95;8.38;;;11.5;99.9;;;;;;;;;
2021/04/19 00:50:55;;;;;;;9.95;8.38;;;11.5;99.9;;;;;;;;;
2021/04/19 00:51:01;;;;;;;9.95;8.38;;;11.5;99.9;;;;;;;;;
2021/04/19 00:51:13;;;;;;;9.95;8.38;;;11.5;99.9;;;;;;;;;
2021/04/19 00:51:13;;;;;;;9.95;8.38;;;11.5;99.9;;;;;;;;;
2021/04/19 00:51:28;;;;;;;9.95;8.38;;;11.5;99.9;;;;;;;;;
2021/04/19 00:51:44;;;;;;;8.38;7.57;;;11.5;99.9;;;;;;;;;
2021/04/19 00:51:54;;;;;;;8.38;7.57;;;11.5;99.9;;;;;;;;;
2021/04/19 00:52:02;;;;;;;8.38;7.57;;;11.5;99.9;;;;;;;;;
2021/04/19 00:52:09;;;;;;;8.38;7.57;;;11.5;99.9;;;;;;;;;
2021/04/19 00:52:14;;;;;;;8.38;7.57;;;11.5;99.9;;;;;;;;;
2021/04/19 00:52:35;;;;;;;8.45;7.28;;;11.6;99.9;;;;;;;;;
2021/04/19 00:52:40;;;;;;;8.45;7.28;;;11.6;99.9;;;;;;;;;
2021/04/19 00:52:55;;;;;;;8.45;7.28;;;11.6;99.9;;;;;;;;;
2021/04/19 00:53:02;;;;;;;8.45;7.28;;;11.6;99.9;;;;;;;;;
2021/04/19 00:53:05;;;;;;;8.45;7.28;;;11.6;99.9;;;;;;;;;
2021/04/19 00:53:16;;;;;;;8.45;7.28;;;11.6;99.9;;;;;;;;;
2021/04/19 00:53:26;;;;;;;8.45;7.28;;;11.6;99.9;;;;;;;;;
2021/04/19 00:53:41;;;;;;;8.95;8.05;;;11.5;99.9;;;;;;;;;
2021/04/19 00:53:57;;;;;;;8.95;8.05;;;11.5;99.9;;;;;;;;;
2021/04/19 00:54:02;;;;;;;8.95;8.05;;;11.5;99.9;;;;;;;;;
2021/04/19 00:54:07;;;;;;;8.95;8.05;;;11.5;99.9;;;;;;;;;
2021/04/19 00:54:12;;;;;;;8.95;8.05;;;11.5;99.9;;;;;;;;;
2021/04/19 00:54:27;;;;;;;8.95;8.05;;;11.5;99.9;;;;;;;;;
2021/04/19 00:54:48;;;;;;;8.85;7;;;11.6;99.9;;;;;;;;;
2021/04/19 00:54:53;;;;;;;8.85;7;;;11.6;99.9;;;;;;;;;
2021/04/19 00:55:02;;;;;;;8.85;7;;;11.6;99.9;;;;;;;;;
2021/04/19 00:55:08;;;;;;;8.85;7;;;11.6;99.9;;;;;;;;;
2021/04/19 00:55:19;;;;;;;8.85;7;;;11.6;99.9;;;;;;;;;
2021/04/19 00:55:29;;;;;;;8.85;7;;;11.6;99.9;;;;;;;;;
2021/04/19 00:55:39;;;;;;;11.2;7.57;;;11.6;99.9;;;;;;;;;
2021/04/19 00:55:54;;;;;;;11.2;7.57;;;11.6;99.9;;;;;;;;;
2021/04/19 00:56:02;;;;;;;11.2;7.57;;;11.6;99.9;;;;;;;;;
2021/04/19 00:56:10;;;;;;;11.2;7.57;;;11.6;99.9;;;;;;;;;
2021/04/19 00:56:15;;;;;;;11.2;7.57;;;11.6;99.9;;;;;;;;;
2021/04/19 00:56:25;;;;;;;11.2;7.57;;;11.6;99.9;;;;;;;;;
2021/04/19 00:56:40;;;;;;;8.75;7.85;;;11.6;99.9;;;;;;;;;
2021/04/19 00:57:01;;;;;;;8.75;7.85;;;11.6;99.9;;;;;;;;;
2021/04/19 00:57:02;;;;;;;8.75;7.85;;;11.6;99.9;;;;;;;;;
2021/04/19 00:57:06;;;;;;;8.75;7.85;;;11.6;99.9;;;;;;;;;
2021/04/19 00:57:16;;;;;;;8.75;7.85;;;11.6;99.9;;;;;;;;;
2021/04/19 00:57:32;;;;;;;8.75;7.85;;;11.6;99.9;;;;;;;;;
2021/04/19 00:57:42;;;;;;;8.85;7.95;;;11.6;99.9;;;;;;;;;
2021/04/19 00:57:52;;;;;;;8.85;7.95;;;11.6;99.9;;;;;;;;;
2021/04/19 00:58:02;;;;;;;8.85;7.95;;;11.6;99.9;;;;;;;;;
2021/04/19 00:58:08;;;;;;;8.85;7.95;;;11.6;99.9;;;;;;;;;
2021/04/19 00:58:18;;;;;;;8.85;7.95;;;11.6;99.9;;;;;;;;;
2021/04/19 00:58:28;;;;;;;8.85;7.95;;;11.6;99.9;;;;;;;;;
2021/04/19 00:58:40;;;;;;;8.65;7.85;;;11.6;99.9;;;;;;;;;
2021/04/19 00:58:54;;;;;;;8.65;7.85;;;11.6;99.9;;;;;;;;;
2021/04/19 00:59:01;;;;;;;8.65;7.85;;;11.6;99.9;;;;;;;;;
2021/04/19 00:59:14;;;;;;;8.65;7.85;;;11.6;99.9;;;;;;;;;
2021/04/19 00:59:14;;;;;;;8.65;7.85;;;11.6;99.9;;;;;;;;;
2021/04/19 00:59:29;;;;;;;8.65;7.85;;;11.6;99.9;;;;;;;;;
2021/04/19 00:59:45;;;;;;;8.68;7.7;;;11.5;99.9;;;;;;;;;
2021/04/19 00:59:55;;;;;;;8.68;7.7;;;11.5;99.9;;;;;;;;;
2021/04/19 01:00:02;;;;;;;8.68;7.7;;;11.5;99.9;;;;;;;;;
2021/04/19 01:00:05;;;;;;;8.68;7.7;;;11.5;99.9;;;;;;;;;
2021/04/19 01:00:16;;;;;;;8.68;7.7;;;11.5;99.9;;;;;;;;;
2021/04/19 01:00:31;;;;;;;8.68;7.7;;;11.5;99.9;;;;;;;;;
2021/04/19 01:00:41;;;;;;;9.35;8.45;;;11.5;99.9;;;;;;;;;
2021/04/19 01:00:51;;;;;;;9.35;8.45;;;11.5;99.9;;;;;;;;;
2021/04/19 01:01:02;;;;;;;9.35;8.45;;;11.5;99.9;;;;;;;;;
2021/04/19 01:01:07;;;;;;;9.35;8.45;;;11.5;99.9;;;;;;;;;
2021/04/19 01:01:12;;;;;;;9.35;8.45;;;11.5;99.9;;;;;;;;;
2021/04/19 01:01:31;;;;;;;9.35;8.45;;;11.5;99.9;;;;;;;;;
2021/04/19 01:01:43;;;;;;;9.63;8.73;;;11.6;99.9;;;;;;;;;
2021/04/19 01:01:58;;;;;;;9.63;8.73;;;11.6;99.9;;;;;;;;;
2021/04/19 01:02:02;;;;;;;9.63;8.73;;;11.6;99.9;;;;;;;;;
2021/04/19 01:02:08;;;;;;;9.63;8.73;;;11.6;99.9;;;;;;;;;
2021/04/19 01:02:18;;;;;;;9.63;8.73;;;11.6;99.9;;;;;;;;;
2021/04/19 01:02:29;;;;;;;9.63;8.73;;;11.6;99.9;;;;;;;;;
2021/04/19 01:02:44;;;;;;;8.68;7.78;;;11.6;99.9;;;;;;;;;
2021/04/19 01:02:54;;;;;;;8.68;7.78;;;11.6;99.9;;;;;;;;;
2021/04/19 01:03:02;;;;;;;8.68;7.78;;;11.6;99.9;;;;;;;;;
2021/04/19 01:03:05;;;;;;;8.68;7.78;;;11.6;99.9;;;;;;;;;
2021/04/19 01:03:15;;;;;;;8.68;7.78;;;11.6;99.9;;;;;;;;;
2021/04/19 01:03:25;;;;;;;8.68;7.78;;;11.6;99.9;;;;;;;;;
2021/04/19 01:03:46;;;;;;;9.38;8.38;;;11.5;99.9;;;;;;;;;
2021/04/19 01:03:56;;;;;;;9.38;8.38;;;11.5;99.9;;;;;;;;;
2021/04/19 01:04:01;;;;;;;9.38;8.38;;;11.5;99.9;;;;;;;;;
2021/04/19 01:04:11;;;;;;;9.38;8.38;;;11.5;99.9;;;;;;;;;
2021/04/19 01:04:16;;;;;;;9.38;8.38;;;11.5;99.9;;;;;;;;;
2021/04/19 01:04:32;;;;;;;9.38;8.38;;;11.5;99.9;;;;;;;;;
2021/04/19 01:04:42;;;;;;;9.43;8.45;;;11.5;99.9;;;;;;;;;
2021/04/19 01:04:57;;;;;;;9.43;8.45;;;11.5;99.9;;;;;;;;;
2021/04/19 01:05:02;;;;;;;9.43;8.45;;;11.5;99.9;;;;;;;;;
2021/04/19 01:05:07;;;;;;;9.43;8.45;;;11.5;99.9;;;;;;;;;
2021/04/19 01:05:18;;;;;;;9.43;8.45;;;11.5;99.9;;;;;;;;;
2021/04/19 01:05:28;;;;;;;9.43;8.45;;;11.5;99.9;;;;;;;;;
2021/04/19 01:05:38;;;;;;;10.68;8.77;;;11.6;99.9;;;;;;;;;
2021/04/19 01:05:59;;;;;;;10.68;8.77;;;11.6;99.9;;;;;;;;;
2021/04/19 01:06:02;;;;;;;10.68;8.77;;;11.6;99.9;;;;;;;;;
2021/04/19 01:06:09;;;;;;;10.68;8.77;;;11.6;99.9;;;;;;;;;
2021/04/19 01:06:14;;;;;;;10.68;8.77;;;11.6;99.9;;;;;;;;;
2021/04/19 01:06:29;;;;;;;10.68;8.77;;;11.6;99.9;;;;;;;;;
2021/04/19 01:06:45;;;;;;;10.93;8.85;;;11.6;99.9;;;;;;;;;
2021/04/19 01:06:55;;;;;;;10.93;8.85;;;11.6;99.9;;;;;;;;;
2021/04/19 01:07:02;;;;;;;10.93;8.85;;;11.6;99.9;;;;;;;;;
2021/04/19 01:07:10;;;;;;;10.93;8.85;;;11.6;99.9;;;;;;;;;
2021/04/19 01:07:15;;;;;;;10.93;8.85;;;11.6;99.9;;;;;;;;;
2021/04/19 01:07:31;;;;;;;10.93;8.85;;;11.6;99.9;;;;;;;;;
2021/04/19 01:07:41;;;;;;;9.4;8.13;;;11.7;99.9;;;;;;;;;
2021/04/19 01:07:51;;;;;;;9.4;8.13;;;11.7;99.9;;;;;;;;;
2021/04/19 01:08:02;;;;;;;9.4;8.13;;;11.7;99.9;;;;;;;;;
2021/04/19 01:08:12;;;;;;;9.4;8.13;;;11.7;99.9;;;;;;;;;
2021/04/19 01:08:17;;;;;;;9.4;8.13;;;11.7;99.9;;;;;;;;;
2021/04/19 01:08:27;;;;;;;9.4;8.13;;;11.7;99.9;;;;;;;;;
2021/04/19 01:08:42;;;;;;;8.88;7.97;;;11.7;99.9;;;;;;;;;
2021/04/19 01:08:58;;;;;;;8.88;7.97;;;11.7;99.9;;;;;;;;;
2021/04/19 01:09:03;;;;;;;8.88;7.97;;;11.7;99.9;;;;;;;;;
2021/04/19 01:09:08;;;;;;;8.88;7.97;;;11.7;99.9;;;;;;;;;
2021/04/19 01:09:13;;;;;;;8.88;7.97;;;11.7;99.9;;;;;;;;;
2021/04/19 01:09:28;;;;;;;8.88;7.97;;;11.7;99.9;;;;;;;;;
2021/04/19 01:09:44;;;;;;;9.38;8.48;;;11.7;99.9;;;;;;;;;
2021/04/19 01:09:54;;;;;;;9.38;8.48;;;11.7;99.9;;;;;;;;;
2021/04/19 01:10:02;;;;;;;9.38;8.48;;;11.7;99.9;;;;;;;;;
2021/04/19 01:10:04;;;;;;;9.38;8.48;;;11.7;99.9;;;;;;;;;
2021/04/19 01:10:14;;;;;;;9.38;8.48;;;11.7;99.9;;;;;;;;;
2021/04/19 01:10:30;;;;;;;9.38;8.48;;;11.7;99.9;;;;;;;;;
2021/04/19 01:10:40;;;;;;;9.32;8.4;;;11.7;99.9;;;;;;;;;
2021/04/19 01:10:55;;;;;;;9.32;8.4;;;11.7;99.9;;;;;;;;;
2021/04/19 01:11:01;;;;;;;9.32;8.4;;;11.7;99.9;;;;;;;;;
2021/04/19 01:11:11;;;;;;;9.32;8.4;;;11.7;99.9;;;;;;;;;
2021/04/19 01:11:16;;;;;;;9.32;8.4;;;11.7;99.9;;;;;;;;;
2021/04/19 01:11:26;;;;;;;9.32;8.4;;;11.7;99.9;;;;;;;;;
2021/04/19 01:11:42;;;;;;;8.95;8.13;;;11.6;99.9;;;;;;;;;
2021/04/19 01:11:57;;;;;;;8.95;8.13;;;11.6;99.9;;;;;;;;;
2021/04/19 01:12:02;;;;;;;8.95;8.13;;;11.6;99.9;;;;;;;;;
2021/04/19 01:12:07;;;;;;;8.95;8.13;;;11.6;99.9;;;;;;;;;
2021/04/19 01:12:17;;;;;;;8.95;8.13;;;11.6;99.9;;;;;;;;;
2021/04/19 01:12:28;;;;;;;8.95;8.13;;;11.6;99.9;;;;;;;;;
2021/04/19 01:12:43;;;;;;;9.9;8.9;;;11.7;99.9;;;;;;;;;
2021/04/19 01:12:53;;;;;;;9.9;8.9;;;11.7;99.9;;;;;;;;;
2021/04/19 01:13:02;;;;;;;9.9;8.9;;;11.7;99.9;;;;;;;;;
2021/04/19 01:13:09;;;;;;;9.9;8.9;;;11.7;99.9;;;;;;;;;
2021/04/19 01:13:14;;;;;;;9.9;8.9;;;11.7;99.9;;;;;;;;;
2021/04/19 01:13:29;;;;;;;9.9;8.9;;;11.7;99.9;;;;;;;;;
2021/04/19 01:13:39;;;;;;;10.07;9.07;;;11.7;99.9;;;;;;;;;
2021/04/19 01:13:55;;;;;;;10.07;9.07;;;11.7;99.9;;;;;;;;;
2021/04/19 01:14:02;;;;;;;10.07;9.07;;;11.7;99.9;;;;;;;;;
2021/04/19 01:14:11;;;;;;;10.07;9.07;;;11.7;99.9;;;;;;;;;
2021/04/19 01:14:15;;;;;;;10.07;9.07;;;11.7;99.9;;;;;;;;;
2021/04/19 01:14:31;;;;;;;10.07;9.07;;;11.7;99.9;;;;;;;;;
2021/04/19 01:14:41;;;;;;;9.45;8.45;;;11.7;99.9;;;;;;;;;
2021/04/19 01:14:56;;;;;;;9.45;8.45;;;11.7;99.9;;;;;;;;;
2021/04/19 01:15:02;;;;;;;9.45;8.45;;;11.7;99.9;;;;;;;;;
2021/04/19 01:15:06;;;;;;;9.45;8.45;;;11.7;99.9;;;;;;;;;
2021/04/19 01:15:17;;;;;;;9.45;8.45;;;11.7;99.9;;;;;;;;;